createdAt,value
2022-10-13T00:00:12.921Z,0
2022-10-13T00:01:29.215Z,0
2022-10-13T00:02:44.530Z,0
2022-10-13T00:04:00.831Z,0
2022-10-13T00:05:17.114Z,0
2022-10-13T00:06:32.441Z,0
2022-10-13T00:07:47.747Z,0
2022-10-13T00:09:04.035Z,0
2022-10-13T00:10:20.329Z,0
2022-10-13T00:11:36.624Z,0
2022-10-13T00:12:52.919Z,0
2022-10-13T00:14:09.216Z,0
2022-10-13T00:15:25.507Z,0
2022-10-13T00:16:41.816Z,0
2022-10-13T00:17:58.092Z,0
2022-10-13T00:19:14.399Z,0
2022-10-13T00:20:29.709Z,0
2022-10-13T00:21:46.000Z,0
2022-10-13T00:23:01.310Z,0
2022-10-13T00:24:17.620Z,0
2022-10-13T00:25:33.896Z,0
2022-10-13T00:26:50.194Z,0
2022-10-13T00:28:06.492Z,0
2022-10-13T00:29:22.785Z,0
2022-10-13T00:30:39.088Z,0
2022-10-13T00:31:55.367Z,0
2022-10-13T00:33:11.680Z,0
2022-10-13T00:34:27.974Z,0
2022-10-13T00:35:44.261Z,0
2022-10-13T00:37:00.551Z,0
2022-10-13T00:38:16.849Z,0
2022-10-13T00:39:32.169Z,0
2022-10-13T00:40:48.448Z,0
2022-10-13T00:42:04.751Z,0
2022-10-13T00:43:21.043Z,0
2022-10-13T00:44:37.340Z,0
2022-10-13T00:45:53.620Z,0
2022-10-13T00:47:09.932Z,0
2022-10-13T00:48:26.224Z,0
2022-10-13T00:49:42.510Z,0
2022-10-13T00:50:58.802Z,0
2022-10-13T00:52:15.100Z,0
2022-10-13T00:53:31.393Z,0
2022-10-13T00:54:47.701Z,0
2022-10-13T00:56:02.995Z,0
2022-10-13T00:57:19.299Z,0
2022-10-13T00:58:35.595Z,0
2022-10-13T00:59:51.884Z,0
2022-10-13T01:01:08.173Z,0
2022-10-13T01:02:24.475Z,0
2022-10-13T01:03:40.762Z,0
2022-10-13T01:04:57.064Z,0
2022-10-13T01:06:13.361Z,0
2022-10-13T01:07:29.648Z,0
2022-10-13T01:08:45.950Z,0
2022-10-13T01:10:02.229Z,0
2022-10-13T01:11:18.544Z,0
2022-10-13T01:12:33.842Z,0
2022-10-13T01:13:50.149Z,0
2022-10-13T01:15:06.437Z,0
2022-10-13T01:16:22.721Z,0
2022-10-13T01:17:39.028Z,0
2022-10-13T01:18:55.316Z,0
2022-10-13T01:20:11.602Z,0
2022-10-13T01:21:27.911Z,0
2022-10-13T01:22:44.205Z,0
2022-10-13T01:24:00.503Z,0
2022-10-13T01:25:16.793Z,0
2022-10-13T01:26:33.093Z,0
2022-10-13T01:27:49.382Z,0
2022-10-13T01:29:04.691Z,0
2022-10-13T01:30:20.986Z,0
2022-10-13T01:31:37.284Z,0
2022-10-13T01:32:53.581Z,0
2022-10-13T01:35:26.166Z,0
2022-10-13T01:36:42.463Z,0
2022-10-13T01:37:58.745Z,0
2022-10-13T01:39:15.034Z,0
2022-10-13T01:40:31.344Z,0
2022-10-13T01:41:47.624Z,0
2022-10-13T01:43:03.930Z,0
2022-10-13T01:44:20.210Z,0
2022-10-13T01:45:36.524Z,0
2022-10-13T01:46:51.819Z,0
2022-10-13T01:49:24.407Z,0
2022-10-13T01:50:40.704Z,0
2022-10-13T01:51:57.002Z,0
2022-10-13T01:53:13.304Z,0
2022-10-13T01:54:29.598Z,0
2022-10-13T01:55:45.878Z,0
2022-10-13T01:57:02.186Z,0
2022-10-13T01:58:18.482Z,0
2022-10-13T01:59:34.764Z,0
2022-10-13T02:02:07.365Z,0
2022-10-13T02:03:22.665Z,0
2022-10-13T02:04:38.955Z,0
2022-10-13T02:05:55.264Z,0
2022-10-13T02:07:11.560Z,0
2022-10-13T02:08:27.854Z,0
2022-10-13T02:09:44.000Z,0
2022-10-13T02:11:00.425Z,0
2022-10-13T02:12:16.737Z,0
2022-10-13T02:13:33.029Z,0
2022-10-13T02:14:49.000Z,0
2022-10-13T02:16:05.614Z,0
2022-10-13T02:17:21.000Z,0
2022-10-13T02:18:38.193Z,0
2022-10-13T02:19:53.516Z,0
2022-10-13T02:21:09.815Z,0
2022-10-13T02:23:42.388Z,0
2022-10-13T02:24:58.680Z,0
2022-10-13T02:26:14.991Z,0
2022-10-13T02:27:31.285Z,0
2022-10-13T02:28:47.571Z,0
2022-10-13T02:30:03.857Z,0
2022-10-13T02:31:20.156Z,0
2022-10-13T02:32:36.461Z,0
2022-10-13T03:03:07.497Z,0
2022-10-13T03:05:39.121Z,0
2022-10-13T03:06:54.440Z,0
2022-10-13T03:08:09.761Z,0
2022-10-13T03:09:26.043Z,0
2022-10-13T03:10:42.342Z,0
2022-10-13T03:13:14.940Z,0
2022-10-13T03:14:31.223Z,0
2022-10-13T03:15:47.521Z,0
2022-10-13T03:17:03.823Z,0
2022-10-13T03:18:20.115Z,0
2022-10-13T03:20:52.695Z,0
2022-10-13T03:22:08.990Z,0
2022-10-13T03:23:25.284Z,0
2022-10-13T03:24:40.599Z,0
2022-10-13T03:25:56.885Z,0
2022-10-13T03:27:13.179Z,0
2022-10-13T03:28:29.478Z,0
2022-10-13T03:29:45.768Z,0
2022-10-13T03:31:02.067Z,0
2022-10-13T03:32:18.361Z,0
2022-10-13T03:33:34.653Z,0
2022-10-13T03:36:07.247Z,0
2022-10-13T03:37:23.534Z,0
2022-10-13T03:38:39.840Z,0
2022-10-13T03:39:56.129Z,0
2022-10-13T03:41:11.447Z,0
2022-10-13T03:42:27.726Z,0
2022-10-13T03:43:44.025Z,0
2022-10-13T03:46:16.630Z,0
2022-10-13T03:47:32.909Z,0
2022-10-13T03:48:49.202Z,0
2022-10-13T03:50:05.495Z,0
2022-10-13T03:52:38.099Z,0
2022-10-13T03:55:10.686Z,0
2022-10-13T03:56:26.976Z,0
2022-10-13T03:57:42.277Z,0
2022-10-13T03:58:58.577Z,0
2022-10-13T04:00:14.880Z,0
2022-10-13T04:01:31.165Z,0
2022-10-13T04:02:47.463Z,0
2022-10-13T04:06:36.350Z,0
2022-10-13T04:07:52.633Z,0
2022-10-13T04:09:08.945Z,0
2022-10-13T04:10:25.238Z,0
2022-10-13T04:11:41.533Z,0
2022-10-13T04:12:57.813Z,0
2022-10-13T04:14:13.123Z,0
2022-10-13T04:15:29.422Z,0
2022-10-13T04:19:18.317Z,0
2022-10-13T04:20:34.602Z,0
2022-10-13T04:21:50.902Z,0
2022-10-13T04:23:07.198Z,0
2022-10-13T04:24:23.493Z,0
2022-10-13T04:25:39.777Z,0
2022-10-13T04:26:56.081Z,0
2022-10-13T04:29:28.663Z,0
2022-10-13T04:30:44.962Z,0
2022-10-13T04:33:16.565Z,0
2022-10-13T04:34:32.853Z,0
2022-10-13T04:35:49.148Z,0
2022-10-13T04:37:05.447Z,0
2022-10-13T04:38:21.000Z,0
2022-10-13T04:39:38.033Z,0
2022-10-13T04:40:54.330Z,0
2022-10-13T04:43:26.926Z,0
2022-10-13T04:44:43.217Z,0
2022-10-13T04:45:59.512Z,0
2022-10-13T04:47:15.795Z,0
2022-10-13T04:49:48.395Z,0
2022-10-13T04:51:03.698Z,0
2022-10-13T04:52:19.943Z,1
2022-10-13T04:53:36.226Z,0
2022-10-13T04:54:52.541Z,0
2022-10-13T04:56:08.795Z,1
2022-10-13T04:57:25.017Z,1
2022-10-13T04:58:41.315Z,0
2022-10-13T04:59:57.579Z,2
2022-10-13T05:01:13.803Z,1
2022-10-13T05:02:30.065Z,2
2022-10-13T05:03:46.298Z,1
2022-10-13T05:05:02.546Z,1
2022-10-13T05:08:51.273Z,2
2022-10-13T05:10:06.520Z,2
2022-10-13T05:11:22.761Z,6
2022-10-13T05:12:38.993Z,6
2022-10-13T05:13:55.245Z,10
2022-10-13T05:15:11.490Z,11
2022-10-13T05:16:27.713Z,8
2022-10-13T05:17:43.969Z,15
2022-10-13T05:19:00.200Z,15
2022-10-13T05:20:16.450Z,23
2022-10-13T05:21:32.688Z,27
2022-10-13T05:22:48.923Z,32
2022-10-13T05:24:05.177Z,43
2022-10-13T05:25:21.414Z,54
2022-10-13T05:26:36.659Z,56
2022-10-13T05:27:52.899Z,60
2022-10-13T05:29:09.144Z,68
2022-10-13T05:30:25.389Z,76
2022-10-13T05:31:41.634Z,78
2022-10-13T05:32:57.857Z,89
2022-10-13T05:34:14.099Z,103
2022-10-13T05:35:30.356Z,113
2022-10-13T05:36:46.585Z,119
2022-10-13T05:38:01.845Z,125
2022-10-13T05:39:18.084Z,138
2022-10-13T05:40:33.347Z,141
2022-10-13T05:41:49.595Z,149
2022-10-13T05:43:05.836Z,157
2022-10-13T05:44:22.060Z,168
2022-10-13T05:45:38.314Z,182
2022-10-13T05:46:54.552Z,199
2022-10-13T05:49:27.038Z,236
2022-10-13T05:50:43.282Z,259
2022-10-13T05:51:59.516Z,286
2022-10-13T05:53:15.751Z,319
2022-10-13T05:54:31.991Z,346
2022-10-13T05:55:48.235Z,364
2022-10-13T05:57:03.494Z,372
2022-10-13T05:58:19.732Z,440
2022-10-13T05:59:35.000Z,455
2022-10-13T06:02:08.447Z,527
2022-10-13T06:04:39.958Z,635
2022-10-13T06:05:56.184Z,679
2022-10-13T06:07:11.449Z,717
2022-10-13T06:08:26.715Z,731
2022-10-13T06:09:42.943Z,898
2022-10-13T06:10:59.196Z,991
2022-10-13T06:12:15.442Z,1024
2022-10-13T06:13:31.679Z,1067
2022-10-13T06:14:47.908Z,1071
2022-10-13T06:16:04.149Z,1181
2022-10-13T06:17:20.404Z,1370
2022-10-13T06:18:36.635Z,1404
2022-10-13T06:19:52.872Z,1397
2022-10-13T06:21:08.145Z,1451
2022-10-13T06:22:23.384Z,1517
2022-10-13T06:23:39.623Z,1552
2022-10-13T06:24:55.863Z,1539
2022-10-13T06:26:12.120Z,1579
2022-10-13T06:27:28.344Z,1583
2022-10-13T06:28:44.601Z,1569
2022-10-13T06:30:00.825Z,1623
2022-10-13T06:31:17.079Z,1623
2022-10-13T06:32:33.321Z,1638
2022-10-13T06:33:49.556Z,1627
2022-10-13T06:35:04.812Z,1572
2022-10-13T06:36:20.066Z,1517
2022-10-13T06:37:36.313Z,1530
2022-10-13T06:38:52.553Z,1607
2022-10-13T06:40:08.801Z,1652
2022-10-13T06:41:25.028Z,1675
2022-10-13T06:42:41.284Z,1779
2022-10-13T06:43:57.519Z,1942
2022-10-13T06:45:13.755Z,2007
2022-10-13T06:46:29.987Z,2112
2022-10-13T06:47:46.247Z,2209
2022-10-13T06:49:02.470Z,2249
2022-10-13T06:50:18.716Z,2330
2022-10-13T06:51:34.949Z,2393
2022-10-13T06:52:51.193Z,2475
2022-10-13T06:54:06.465Z,2676
2022-10-13T06:55:22.685Z,2737
2022-10-13T06:56:38.943Z,2903
2022-10-13T06:57:55.169Z,2885
2022-10-13T06:59:11.413Z,2968
2022-10-13T07:00:27.657Z,3011
2022-10-13T07:01:43.887Z,3080
2022-10-13T07:03:00.144Z,3077
2022-10-13T07:04:16.368Z,3190
2022-10-13T07:05:32.613Z,3215
2022-10-13T07:06:48.849Z,3273
2022-10-13T07:09:21.331Z,3380
2022-10-13T07:10:36.604Z,3277
2022-10-13T07:11:52.845Z,3351
2022-10-13T07:13:09.083Z,3261
2022-10-13T07:14:25.314Z,3254
2022-10-13T07:15:41.565Z,3147
2022-10-13T07:16:57.790Z,3026
2022-10-13T07:18:14.042Z,2944
2022-10-13T07:19:30.287Z,2915
2022-10-13T07:20:46.513Z,2913
2022-10-13T07:22:01.782Z,2903
2022-10-13T07:24:34.263Z,2866
2022-10-13T07:25:50.506Z,2841
2022-10-13T07:28:22.985Z,2835
2022-10-13T07:29:38.250Z,2854
2022-10-13T07:30:53.496Z,2869
2022-10-13T07:32:09.730Z,2892
2022-10-13T07:33:25.983Z,2930
2022-10-13T07:34:42.209Z,2975
2022-10-13T07:35:58.461Z,3027
2022-10-13T07:37:14.694Z,3058
2022-10-13T07:38:30.947Z,3155
2022-10-13T07:39:47.179Z,3231
2022-10-13T07:41:03.410Z,3357
2022-10-13T07:42:19.657Z,3452
2022-10-13T07:43:35.902Z,3563
2022-10-13T07:44:51.161Z,3687
2022-10-13T07:46:07.396Z,3796
2022-10-13T07:47:22.659Z,3884
2022-10-13T07:48:38.900Z,3938
2022-10-13T07:49:55.144Z,3948
2022-10-13T07:52:27.611Z,3953
2022-10-13T07:53:43.851Z,3964
2022-10-13T07:56:16.346Z,3826
2022-10-13T07:57:32.579Z,3780
2022-10-13T07:58:48.821Z,3706
2022-10-13T08:00:05.064Z,3782
2022-10-13T08:01:20.330Z,3899
2022-10-13T08:02:35.570Z,3971
2022-10-13T08:03:51.820Z,4043
2022-10-13T08:06:24.296Z,4108
2022-10-13T08:07:40.550Z,4148
2022-10-13T08:10:13.018Z,4192
2022-10-13T08:11:29.249Z,4153
2022-10-13T08:12:45.493Z,4131
2022-10-13T08:14:01.734Z,4148
2022-10-13T08:15:17.973Z,4188
2022-10-13T08:16:34.226Z,4174
2022-10-13T08:17:49.477Z,4182
2022-10-13T08:19:05.720Z,4176
2022-10-13T08:20:20.988Z,4213
2022-10-13T08:21:37.219Z,4204
2022-10-13T08:22:53.462Z,4070
2022-10-13T08:25:25.933Z,4161
2022-10-13T08:26:42.181Z,4232
2022-10-13T08:27:58.415Z,4175
2022-10-13T08:29:14.655Z,4270
2022-10-13T08:30:30.897Z,4334
2022-10-13T08:33:03.383Z,4378
2022-10-13T08:34:19.626Z,4370
2022-10-13T08:35:35.857Z,4447
2022-10-13T08:36:51.113Z,4380
2022-10-13T08:38:07.360Z,4449
2022-10-13T08:39:23.590Z,4588
2022-10-13T08:40:39.833Z,4563
2022-10-13T08:41:56.082Z,4773
2022-10-13T08:43:12.322Z,4795
2022-10-13T08:44:28.559Z,4840
2022-10-13T08:45:44.803Z,4912
2022-10-13T08:47:01.043Z,4940
2022-10-13T08:48:17.283Z,4937
2022-10-13T08:49:33.507Z,4931
2022-10-13T08:50:49.747Z,4891
2022-10-13T08:52:05.017Z,4864
2022-10-13T08:53:20.275Z,4862
2022-10-13T08:55:52.750Z,4904
2022-10-13T08:57:09.000Z,4904
2022-10-13T08:58:25.241Z,4944
2022-10-13T08:59:41.480Z,5028
2022-10-13T09:00:57.708Z,5014
2022-10-13T09:03:30.189Z,5103
2022-10-13T09:04:46.431Z,5242
2022-10-13T09:06:02.668Z,5283
2022-10-13T09:07:18.916Z,5310
2022-10-13T09:08:34.174Z,5281
2022-10-13T09:09:50.409Z,5262
2022-10-13T09:11:05.665Z,5215
2022-10-13T09:12:21.911Z,5130
2022-10-13T09:13:38.151Z,5124
2022-10-13T09:14:54.381Z,5147
2022-10-13T09:16:10.639Z,5136
2022-10-13T09:17:26.869Z,5151
2022-10-13T09:18:43.119Z,5236
2022-10-13T09:19:59.349Z,5144
2022-10-13T09:21:15.583Z,5169
2022-10-13T09:22:31.820Z,5186
2022-10-13T09:23:47.096Z,5216
2022-10-13T09:26:18.593Z,5336
2022-10-13T09:27:34.827Z,5294
2022-10-13T09:28:51.060Z,5242
2022-10-13T09:30:07.309Z,5313
2022-10-13T09:31:23.552Z,5257
2022-10-13T09:32:39.788Z,5379
2022-10-13T09:33:56.032Z,5437
2022-10-13T09:35:12.258Z,5368
2022-10-13T09:36:28.500Z,5382
2022-10-13T09:37:44.737Z,5417
2022-10-13T09:39:00.005Z,5353
2022-10-13T09:40:16.239Z,5352
2022-10-13T09:41:32.478Z,5387
2022-10-13T09:42:47.734Z,5397
2022-10-13T09:44:03.990Z,5425
2022-10-13T09:45:20.216Z,5446
2022-10-13T09:46:36.456Z,5428
2022-10-13T09:47:52.702Z,5413
2022-10-13T09:49:08.936Z,5398
2022-10-13T09:50:25.189Z,5398
2022-10-13T09:51:41.426Z,5380
2022-10-13T09:52:57.654Z,5525
2022-10-13T09:54:13.899Z,5509
2022-10-13T09:55:30.137Z,5548
2022-10-13T09:56:46.377Z,5509
2022-10-13T09:58:02.626Z,5378
2022-10-13T09:59:17.867Z,5268
2022-10-13T10:00:34.120Z,5212
2022-10-13T10:01:50.355Z,5142
2022-10-13T10:04:22.832Z,5349
2022-10-13T10:05:39.079Z,5354
2022-10-13T10:06:55.312Z,5411
2022-10-13T10:08:11.562Z,5652
2022-10-13T10:09:27.796Z,5782
2022-10-13T10:10:44.043Z,5976
2022-10-13T10:12:00.261Z,6037
2022-10-13T10:13:16.503Z,6203
2022-10-13T10:14:32.751Z,6207
2022-10-13T10:15:47.997Z,6246
2022-10-13T10:17:04.243Z,6317
2022-10-13T10:19:36.721Z,6453
2022-10-13T10:20:52.961Z,6510
2022-10-13T10:22:09.194Z,6548
2022-10-13T10:23:25.442Z,6514
2022-10-13T10:24:41.684Z,6506
2022-10-13T10:25:57.915Z,6517
2022-10-13T10:28:30.406Z,6520
2022-10-13T10:29:45.671Z,6493
2022-10-13T10:31:00.916Z,6430
2022-10-13T10:32:17.152Z,6383
2022-10-13T10:33:33.393Z,6302
2022-10-13T10:34:49.646Z,6215
2022-10-13T10:37:22.127Z,6013
2022-10-13T10:38:38.357Z,6012
2022-10-13T10:39:54.587Z,5879
2022-10-13T10:42:27.068Z,5758
2022-10-13T10:44:59.553Z,5882
2022-10-13T10:47:32.042Z,5899
2022-10-13T10:48:47.305Z,5956
2022-10-13T10:50:02.547Z,6082
2022-10-13T10:52:35.021Z,6067
2022-10-13T10:53:51.261Z,6298
2022-10-13T10:55:07.508Z,6430
2022-10-13T10:57:39.998Z,5574
2022-10-13T10:58:56.228Z,5984
2022-10-13T11:00:12.474Z,6200
2022-10-13T11:01:28.717Z,6314
2022-10-13T11:02:44.949Z,6324
2022-10-13T11:04:01.178Z,6314
2022-10-13T11:05:17.425Z,6334
2022-10-13T11:07:48.928Z,6364
2022-10-13T11:09:05.153Z,6368
2022-10-13T11:10:21.404Z,6418
2022-10-13T11:11:37.644Z,6430
2022-10-13T11:12:53.887Z,6394
2022-10-13T11:14:10.117Z,6387
2022-10-13T11:15:26.364Z,6393
2022-10-13T11:16:42.606Z,6323
2022-10-13T11:17:58.830Z,6378
2022-10-13T11:19:15.073Z,6202
2022-10-13T11:20:31.329Z,6406
2022-10-13T11:21:47.555Z,6034
2022-10-13T11:23:02.816Z,6667
2022-10-13T11:24:18.072Z,7035
2022-10-13T11:25:33.328Z,6583
2022-10-13T11:26:49.580Z,6120
2022-10-13T11:28:05.810Z,6080
2022-10-13T11:29:22.048Z,5981
2022-10-13T11:30:38.299Z,6503
2022-10-13T11:31:54.541Z,6439
2022-10-13T11:33:10.772Z,5836
2022-10-13T11:35:43.260Z,5374
2022-10-13T11:36:58.506Z,4989
2022-10-13T11:38:14.742Z,4863
2022-10-13T11:39:30.984Z,5327
2022-10-13T11:40:47.223Z,5264
2022-10-13T11:42:03.476Z,4830
2022-10-13T11:43:19.711Z,4626
2022-10-13T11:44:35.957Z,4583
2022-10-13T11:45:52.191Z,4457
2022-10-13T11:47:08.427Z,4290
2022-10-13T11:48:24.671Z,4827
2022-10-13T11:49:40.916Z,5255
2022-10-13T11:50:57.138Z,5506
2022-10-13T11:52:12.403Z,5447
2022-10-13T11:53:27.662Z,5446
2022-10-13T11:54:43.914Z,5358
2022-10-13T11:56:00.150Z,5385
2022-10-13T11:57:16.389Z,5446
2022-10-13T11:58:32.634Z,5179
2022-10-13T11:59:48.862Z,5969
2022-10-13T12:01:05.099Z,5967
2022-10-13T12:02:21.346Z,5583
2022-10-13T12:03:37.576Z,5674
2022-10-13T12:06:10.062Z,5219
2022-10-13T12:07:26.303Z,5246
2022-10-13T12:09:58.784Z,6798
2022-10-13T12:11:14.042Z,5869
2022-10-13T12:12:29.302Z,6297
2022-10-13T12:13:45.541Z,6102
2022-10-13T12:15:01.786Z,5696
2022-10-13T12:17:34.256Z,5446
2022-10-13T12:18:50.493Z,5095
2022-10-13T12:22:39.216Z,5285
2022-10-13T12:23:55.463Z,5365
2022-10-13T12:25:11.695Z,5468
2022-10-13T12:26:27.933Z,5439
2022-10-13T12:29:00.424Z,5260
2022-10-13T12:30:15.676Z,5573
2022-10-13T12:32:47.178Z,5837
2022-10-13T12:34:03.401Z,5778
2022-10-13T12:35:19.644Z,5617
2022-10-13T12:36:35.899Z,5652
2022-10-13T12:37:52.133Z,5694
2022-10-13T12:39:08.370Z,5913
2022-10-13T12:40:24.612Z,6016
2022-10-13T12:41:40.839Z,6127
2022-10-13T12:42:57.080Z,6309
2022-10-13T12:44:13.330Z,6141
2022-10-13T12:45:29.578Z,6156
2022-10-13T12:46:44.825Z,5595
2022-10-13T12:48:01.077Z,5121
2022-10-13T12:49:16.324Z,4943
2022-10-13T12:50:32.557Z,4567
2022-10-13T12:51:48.813Z,4237
2022-10-13T12:53:05.046Z,4025
2022-10-13T12:54:21.280Z,3864
2022-10-13T12:55:37.514Z,3726
2022-10-13T12:56:53.771Z,3579
2022-10-13T12:58:09.996Z,3448
2022-10-13T12:59:26.238Z,3954
2022-10-13T13:00:41.496Z,3883
2022-10-13T13:01:56.761Z,3678
2022-10-13T13:03:12.998Z,3637
2022-10-13T13:04:29.249Z,4283
2022-10-13T13:08:17.950Z,3380
2022-10-13T13:09:34.205Z,3283
2022-10-13T13:10:50.442Z,3097
2022-10-13T13:12:06.682Z,2834
2022-10-13T13:14:39.163Z,2564
2022-10-13T13:15:55.392Z,2600
2022-10-13T13:17:11.639Z,2601
2022-10-13T13:18:26.907Z,2613
2022-10-13T13:19:42.000Z,2624
2022-10-13T13:22:14.625Z,2621
2022-10-13T13:23:30.866Z,2585
2022-10-13T13:24:47.117Z,2598
2022-10-13T13:26:03.347Z,2603
2022-10-13T13:27:19.593Z,2628
2022-10-13T13:28:35.839Z,2738
2022-10-13T13:29:52.060Z,2781
2022-10-13T13:31:08.313Z,2717
2022-10-13T13:32:24.539Z,2656
2022-10-13T13:33:40.799Z,2605
2022-10-13T13:36:13.274Z,2693
2022-10-13T13:37:28.524Z,2736
2022-10-13T13:38:43.788Z,2764
2022-10-13T13:40:00.022Z,2728
2022-10-13T13:41:16.261Z,2991
2022-10-13T13:42:32.506Z,3132
2022-10-13T13:43:48.750Z,3181
2022-10-13T13:45:04.977Z,3346
2022-10-13T13:46:21.213Z,3470
2022-10-13T13:47:37.467Z,3736
2022-10-13T13:48:53.711Z,4128
2022-10-13T13:50:09.951Z,4254
2022-10-13T13:52:41.439Z,4421
2022-10-13T13:53:56.705Z,4454
2022-10-13T13:55:12.944Z,4447
2022-10-13T13:56:29.173Z,4409
2022-10-13T13:57:45.424Z,4380
2022-10-13T13:59:01.657Z,4309
2022-10-13T14:00:17.898Z,4261
2022-10-13T14:01:34.135Z,4168
2022-10-13T14:02:50.372Z,3972
2022-10-13T14:04:06.626Z,3773
2022-10-13T14:05:21.872Z,3591
2022-10-13T14:06:37.135Z,3439
2022-10-13T14:07:53.369Z,3304
2022-10-13T14:09:09.609Z,3184
2022-10-13T14:10:25.850Z,3078
2022-10-13T14:11:42.102Z,3079
2022-10-13T14:12:58.335Z,3237
2022-10-13T14:14:14.578Z,3107
2022-10-13T14:15:30.819Z,3465
2022-10-13T14:16:47.051Z,3144
2022-10-13T14:18:03.294Z,3070
2022-10-13T14:19:18.554Z,3301
2022-10-13T14:20:33.806Z,3563
2022-10-13T14:21:50.041Z,3598
2022-10-13T14:23:06.282Z,3691
2022-10-13T14:24:22.526Z,3644
2022-10-13T14:25:38.775Z,3552
2022-10-13T14:26:55.002Z,3567
2022-10-13T14:28:11.239Z,3517
2022-10-13T14:29:27.486Z,3897
2022-10-13T14:30:43.716Z,3929
2022-10-13T14:31:59.962Z,3831
2022-10-13T14:33:16.194Z,3691
2022-10-13T14:34:32.449Z,3763
2022-10-13T14:35:48.672Z,3689
2022-10-13T14:37:03.929Z,3608
2022-10-13T14:38:20.177Z,3659
2022-10-13T14:39:36.422Z,3607
2022-10-13T14:40:52.646Z,3490
2022-10-13T14:42:08.892Z,3359
2022-10-13T14:43:25.131Z,3343
2022-10-13T14:44:41.364Z,3256
2022-10-13T14:45:57.622Z,3207
2022-10-13T14:47:13.845Z,3098
2022-10-13T14:48:30.088Z,2971
2022-10-13T14:49:46.328Z,2873
2022-10-13T14:52:18.812Z,2733
2022-10-13T14:53:34.077Z,2667
2022-10-13T14:54:50.306Z,2600
2022-10-13T14:56:06.546Z,2543
2022-10-13T14:57:22.793Z,2458
2022-10-13T14:58:39.015Z,2382
2022-10-13T14:59:55.273Z,2257
2022-10-13T15:01:11.495Z,2132
2022-10-13T15:02:27.742Z,2092
2022-10-13T15:03:43.975Z,2090
2022-10-13T15:05:00.223Z,2079
2022-10-13T15:06:16.459Z,1966
2022-10-13T15:07:32.706Z,1967
2022-10-13T15:08:48.936Z,2089
2022-10-13T15:10:04.207Z,2141
2022-10-13T15:11:20.434Z,2043
2022-10-13T15:12:36.683Z,1927
2022-10-13T15:13:52.922Z,1839
2022-10-13T15:15:09.164Z,1786
2022-10-13T15:16:25.386Z,1750
2022-10-13T15:17:41.635Z,1712
2022-10-13T15:18:57.867Z,1692
2022-10-13T15:20:14.125Z,1692
2022-10-13T15:21:30.353Z,1698
2022-10-13T15:22:46.595Z,1704
2022-10-13T15:24:02.842Z,1721
2022-10-13T15:26:35.306Z,1776
2022-10-13T15:27:50.576Z,1766
2022-10-13T15:29:06.810Z,1739
2022-10-13T15:30:23.044Z,1687
2022-10-13T15:31:39.280Z,1599
2022-10-13T15:32:55.536Z,1555
2022-10-13T15:34:11.766Z,1472
2022-10-13T15:35:27.999Z,1348
2022-10-13T15:36:44.248Z,1260
2022-10-13T15:40:32.969Z,1101
2022-10-13T15:41:48.217Z,1056
2022-10-13T15:43:04.456Z,1015
2022-10-13T15:44:19.725Z,986
2022-10-13T15:45:35.954Z,907
2022-10-13T15:46:52.190Z,830
2022-10-13T15:48:08.428Z,767
2022-10-13T15:49:24.671Z,708
2022-10-13T15:50:40.921Z,651
2022-10-13T15:51:56.172Z,602
2022-10-13T15:54:28.652Z,518
2022-10-13T15:55:44.893Z,481
2022-10-13T15:57:01.129Z,445
2022-10-13T15:58:17.382Z,419
2022-10-13T15:59:33.606Z,398
2022-10-13T16:02:06.096Z,366
2022-10-13T16:04:37.599Z,341
2022-10-13T16:05:52.860Z,340
2022-10-13T16:07:08.119Z,323
2022-10-13T16:08:24.351Z,303
2022-10-13T16:09:40.592Z,284
2022-10-13T16:10:56.822Z,263
2022-10-13T16:12:13.072Z,241
2022-10-13T16:14:45.556Z,182
2022-10-13T16:16:01.786Z,158
2022-10-13T16:17:18.033Z,138
2022-10-13T16:18:34.273Z,120
2022-10-13T16:19:50.499Z,105
2022-10-13T16:21:06.745Z,92
2022-10-13T16:22:22.986Z,82
2022-10-13T16:23:39.236Z,71
2022-10-13T16:24:54.492Z,59
2022-10-13T16:26:10.732Z,51
2022-10-13T16:27:26.960Z,46
2022-10-13T16:28:43.197Z,43
2022-10-13T16:29:59.454Z,39
2022-10-13T16:31:15.686Z,28
2022-10-13T16:32:31.921Z,27
2022-10-13T16:33:48.158Z,23
2022-10-13T16:35:03.422Z,18
2022-10-13T16:36:18.685Z,16
2022-10-13T16:37:34.924Z,11
2022-10-13T16:38:51.164Z,10
2022-10-13T16:40:07.397Z,13
2022-10-13T16:41:23.628Z,11
2022-10-13T16:42:39.875Z,9
2022-10-13T16:43:56.116Z,9
2022-10-13T16:45:12.365Z,3
2022-10-13T16:47:44.830Z,1
2022-10-13T16:49:01.083Z,2
2022-10-13T16:50:17.310Z,2
2022-10-13T16:51:33.548Z,2
2022-10-13T16:52:48.806Z,1
2022-10-13T16:54:05.111Z,0
2022-10-13T16:55:21.405Z,0
2022-10-13T16:56:37.686Z,0
2022-10-13T16:57:53.984Z,0
2022-10-13T16:59:10.289Z,0
2022-10-13T17:00:26.579Z,0
2022-10-13T17:01:42.880Z,0
2022-10-13T17:02:58.190Z,0
2022-10-13T17:04:13.501Z,0
2022-10-13T17:05:29.787Z,0
2022-10-13T17:06:46.083Z,0
2022-10-13T17:08:02.370Z,0
2022-10-13T17:09:18.676Z,0
2022-10-13T17:11:51.256Z,0
2022-10-13T17:13:07.556Z,0
2022-10-13T17:14:23.839Z,0
2022-10-13T17:15:40.134Z,0
2022-10-13T17:16:56.429Z,0
2022-10-13T17:18:12.721Z,0
2022-10-13T17:19:29.023Z,0
2022-10-13T17:20:44.328Z,0
2022-10-13T17:22:00.620Z,0
2022-10-13T17:23:16.915Z,0
2022-10-13T17:25:49.496Z,0
2022-10-13T17:27:04.814Z,0
2022-10-13T17:28:20.137Z,0
2022-10-13T17:29:36.421Z,0
2022-10-13T17:30:52.720Z,0
2022-10-13T17:32:09.014Z,0
2022-10-13T17:33:25.295Z,0
2022-10-13T17:34:41.609Z,0
2022-10-13T17:37:14.177Z,0
2022-10-13T17:38:30.477Z,0
2022-10-13T17:39:46.765Z,0
2022-10-13T17:41:03.067Z,0
2022-10-13T17:42:19.351Z,0
2022-10-13T17:43:35.665Z,0
2022-10-13T17:44:50.965Z,0
2022-10-13T17:46:07.266Z,0
2022-10-13T17:49:56.134Z,0
2022-10-13T17:51:11.465Z,0
2022-10-13T17:52:27.751Z,0
2022-10-13T17:53:43.055Z,0
2022-10-13T17:54:59.350Z,0
2022-10-13T17:56:15.646Z,0
2022-10-13T17:57:31.935Z,0
2022-10-13T17:58:48.240Z,0
2022-10-13T18:00:04.539Z,0
2022-10-13T18:02:37.123Z,0
2022-10-13T18:03:53.420Z,0
2022-10-13T18:05:09.695Z,0
2022-10-13T18:06:25.991Z,0
2022-10-13T18:07:42.285Z,0
2022-10-13T18:08:58.578Z,0
2022-10-13T18:10:13.888Z,0
2022-10-13T18:11:30.188Z,0
2022-10-13T18:12:46.487Z,0
2022-10-13T18:14:02.772Z,0
2022-10-13T18:15:19.079Z,0
2022-10-13T18:16:35.368Z,0
2022-10-13T18:17:51.665Z,0
2022-10-13T18:19:06.980Z,0
2022-10-13T18:21:39.549Z,0
2022-10-13T18:22:54.866Z,0
2022-10-13T18:24:11.156Z,0
2022-10-13T18:26:43.758Z,0
2022-10-13T18:28:00.050Z,0
2022-10-13T18:29:16.327Z,0
2022-10-13T18:30:32.630Z,0
2022-10-13T18:33:05.222Z,0
2022-10-13T18:34:21.519Z,0
2022-10-13T18:35:37.803Z,0
2022-10-13T18:36:53.118Z,0
2022-10-13T18:38:08.438Z,0
2022-10-13T18:39:24.727Z,0
2022-10-13T18:41:57.301Z,0
2022-10-13T18:43:13.603Z,0
2022-10-13T18:45:46.201Z,0
2022-10-13T18:47:02.474Z,0
2022-10-13T18:48:18.778Z,0
2022-10-13T18:49:35.069Z,0
2022-10-13T18:50:51.368Z,0
2022-10-13T18:53:23.954Z,0
2022-10-13T18:57:11.851Z,0
2022-10-13T18:58:28.134Z,0
2022-10-13T18:59:44.436Z,0
2022-10-13T19:02:17.015Z,0
2022-10-13T19:03:33.312Z,0
2022-10-13T19:04:49.602Z,0
2022-10-13T19:06:05.905Z,0
2022-10-13T19:07:22.195Z,0
2022-10-13T19:08:38.497Z,0
2022-10-13T19:09:54.781Z,0
2022-10-13T19:11:11.069Z,0
2022-10-13T19:12:26.397Z,0
2022-10-13T19:13:42.691Z,0
2022-10-13T19:14:58.967Z,0
2022-10-13T19:16:15.280Z,0
2022-10-13T19:18:47.865Z,0
2022-10-13T19:20:04.156Z,0
2022-10-13T19:22:36.740Z,0
2022-10-13T19:23:53.037Z,0
2022-10-13T19:25:09.315Z,0
2022-10-13T19:26:25.615Z,0
2022-10-13T19:27:41.923Z,0
2022-10-13T19:28:57.214Z,0
2022-10-13T19:31:29.814Z,0
2022-10-13T19:32:46.112Z,0
2022-10-13T19:34:02.397Z,0
2022-10-13T19:35:18.694Z,0
2022-10-13T19:36:34.981Z,0
2022-10-13T19:37:51.275Z,0
2022-10-13T19:39:07.575Z,0
2022-10-13T19:40:23.862Z,0
2022-10-13T19:42:56.463Z,0
2022-10-13T19:44:12.753Z,0
2022-10-13T19:45:28.059Z,0
2022-10-13T19:46:44.357Z,0
2022-10-13T19:48:00.635Z,0
2022-10-13T19:49:16.930Z,0
2022-10-13T19:50:33.232Z,0
2022-10-13T19:51:49.524Z,0
2022-10-13T19:53:05.824Z,0
2022-10-13T19:54:22.103Z,0
2022-10-13T19:56:54.699Z,0
2022-10-13T19:58:10.987Z,0
2022-10-13T19:59:27.286Z,0
2022-10-13T20:00:43.568Z,0
2022-10-13T20:01:59.865Z,0
2022-10-13T20:03:15.187Z,0